createdAt,value
2023-03-19T19:23:30.176Z,41.00
2023-03-19T20:24:29.171Z,38.30
2023-03-19T20:29:50.638Z,37.10
2023-03-19T20:32:38.118Z,41.97
2023-03-19T20:35:26.153Z,39.70
2023-03-19T20:38:14.229Z,43.25
2023-03-19T20:40:59.877Z,38.63
2023-03-19T20:43:47.020Z,37.35
2023-03-19T20:46:34.641Z,37.60
2023-03-19T20:49:20.646Z,37.05
2023-03-19T20:52:06.478Z,35.15
2023-03-19T20:54:52.740Z,37.65
2023-03-19T20:57:38.562Z,37.80
2023-03-19T21:00:27.657Z,27.05
2023-03-19T21:03:19.855Z,27.65
2023-03-19T21:06:12.266Z,33.90
2023-03-19T21:09:00.291Z,30.77
2023-03-19T21:11:47.026Z,24.83
2023-03-19T21:14:33.910Z,25.13
2023-03-19T21:17:19.995Z,17.33
2023-03-19T21:20:08.364Z,26.48
2023-03-19T21:22:57.793Z,18.77
2023-03-19T21:25:44.265Z,19.70
2023-03-19T21:28:33.669Z,20.92
2023-03-19T21:31:20.684Z,29.40
2023-03-19T21:34:06.930Z,26.92
2023-03-19T21:36:54.244Z,28.60
2023-03-19T21:39:40.256Z,25.30
2023-03-19T21:42:26.535Z,25.63
2023-03-19T21:45:17.894Z,27.05
2023-03-19T21:48:23.619Z,29.45
2023-03-19T21:51:13.299Z,31.35
2023-03-19T21:54:00.414Z,30.65
2023-03-19T21:56:46.561Z,32.85
2023-03-19T21:59:33.806Z,32.05
2023-03-19T22:02:39.178Z,31.00
2023-03-19T22:05:27.983Z,33.47
2023-03-19T22:08:16.068Z,35.67
2023-03-19T22:11:03.450Z,36.83
2023-03-19T22:13:49.366Z,32.20
2023-03-19T22:16:35.220Z,33.72
2023-03-19T22:19:21.075Z,35.47
2023-03-19T22:22:07.298Z,30.90
2023-03-19T22:24:54.648Z,35.75
2023-03-19T22:27:43.778Z,32.58
2023-03-19T22:30:35.641Z,37.45
2023-03-19T22:33:23.659Z,34.78
2023-03-19T22:36:12.568Z,33.60
2023-03-19T22:38:58.481Z,30.98
2023-03-19T22:41:47.787Z,28.73
2023-03-19T22:44:34.776Z,28.40
2023-03-19T22:47:23.401Z,27.63
2023-03-19T22:50:17.462Z,26.33
2023-03-19T22:53:19.503Z,28.88
2023-03-19T22:56:05.704Z,28.42
2023-03-19T22:58:52.352Z,27.58
2023-03-19T23:01:41.819Z,25.70
2023-03-19T23:04:30.659Z,28.17
2023-03-19T23:07:16.557Z,25.15
2023-03-19T23:10:06.000Z,26.23
2023-03-19T23:12:52.382Z,24.63
2023-03-19T23:15:39.390Z,21.77
2023-03-19T23:18:29.861Z,17.45
2023-03-19T23:21:17.895Z,22.88
2023-03-19T23:24:03.590Z,21.08
2023-03-19T23:26:51.431Z,21.33
2023-03-19T23:29:43.667Z,18.08
2023-03-19T23:32:29.191Z,19.63
2023-03-19T23:35:18.361Z,20.30
2023-03-19T23:38:04.087Z,21.63
2023-03-19T23:40:52.137Z,21.10
2023-03-19T23:43:37.711Z,20.88
2023-03-19T23:46:23.406Z,24.92
2023-03-19T23:49:12.785Z,18.63
2023-03-19T23:52:00.573Z,21.88
2023-03-19T23:54:46.653Z,18.65
2023-03-19T23:57:34.165Z,20.02
